createdAt,value
2018-01-16T00:00:45.851Z,993.09
2018-01-16T00:01:45.826Z,993.13
2018-01-16T00:02:45.805Z,993.17
2018-01-16T00:03:45.782Z,993.20
2018-01-16T00:04:45.760Z,993.20
2018-01-16T00:05:45.738Z,993.18
2018-01-16T00:06:45.717Z,993.28
2018-01-16T00:07:45.695Z,993.27
2018-01-16T00:08:45.673Z,993.30
2018-01-16T00:09:45.651Z,993.28
2018-01-16T00:10:45.629Z,993.31
2018-01-16T00:11:45.608Z,993.32
2018-01-16T00:12:45.584Z,993.39
2018-01-16T00:13:45.564Z,993.39
2018-01-16T00:14:45.541Z,993.38
2018-01-16T00:15:45.521Z,993.38
2018-01-16T00:16:45.497Z,993.37
2018-01-16T00:17:45.476Z,993.40
2018-01-16T00:18:45.455Z,993.37
2018-01-16T00:19:45.433Z,993.37
2018-01-16T00:20:45.411Z,993.40
2018-01-16T00:21:45.388Z,993.37
2018-01-16T00:22:45.367Z,993.36
2018-01-16T00:23:45.348Z,993.35
2018-01-16T00:24:45.323Z,993.30
2018-01-16T00:25:45.301Z,993.24
2018-01-16T00:26:45.279Z,993.20
2018-01-16T00:27:45.257Z,993.27
2018-01-16T00:28:45.235Z,993.16
2018-01-16T00:29:45.216Z,993.13
2018-01-16T00:30:45.191Z,993.14
2018-01-16T00:31:45.170Z,993.13
2018-01-16T00:32:45.147Z,993.16
2018-01-16T00:33:45.126Z,993.16
2018-01-16T00:34:45.104Z,993.12
2018-01-16T00:35:45.081Z,993.14
2018-01-16T00:36:45.059Z,993.10
2018-01-16T00:37:45.038Z,993.10
2018-01-16T00:38:45.016Z,993.07
2018-01-16T00:39:44.994Z,993.11
2018-01-16T00:40:44.971Z,993.17
2018-01-16T00:41:44.950Z,993.18
2018-01-16T00:42:44.929Z,993.18
2018-01-16T00:43:44.906Z,993.12
2018-01-16T00:44:44.883Z,993.14
2018-01-16T00:45:44.861Z,993.10
2018-01-16T00:46:44.840Z,993.08
2018-01-16T00:47:44.818Z,993.09
2018-01-16T00:48:44.794Z,993.10
2018-01-16T00:49:44.773Z,993.08
2018-01-16T00:50:44.751Z,993.03
2018-01-16T00:51:44.730Z,992.96
2018-01-16T00:52:44.707Z,992.96
2018-01-16T00:53:44.685Z,992.90
2018-01-16T00:54:44.663Z,992.94
2018-01-16T00:55:44.641Z,992.99
2018-01-16T00:56:44.618Z,992.99
2018-01-16T00:57:44.596Z,993.08
2018-01-16T00:58:44.574Z,993.02
2018-01-16T00:59:44.552Z,993.09
2018-01-16T01:00:44.530Z,993.13
2018-01-16T01:01:44.510Z,993.16
2018-01-16T01:02:44.486Z,993.19
2018-01-16T01:03:44.464Z,993.13
2018-01-16T01:04:44.441Z,993.08
2018-01-16T01:05:44.420Z,993.13
2018-01-16T01:06:44.398Z,993.08
2018-01-16T01:07:44.376Z,993.04
2018-01-16T01:08:44.352Z,993.08
2018-01-16T01:09:44.331Z,993.02
2018-01-16T01:10:44.309Z,993.04
2018-01-16T01:11:44.286Z,993.01
2018-01-16T01:12:44.266Z,993.03
2018-01-16T01:13:44.240Z,993.06
2018-01-16T01:14:44.220Z,993.09
2018-01-16T01:15:44.197Z,993.10
2018-01-16T01:16:44.176Z,993.07
2018-01-16T01:17:44.153Z,993.11
2018-01-16T01:18:44.132Z,993.06
2018-01-16T01:19:44.110Z,993.03
2018-01-16T01:20:44.088Z,993.03
2018-01-16T01:21:44.066Z,993.02
2018-01-16T01:22:44.047Z,992.98
2018-01-16T01:23:44.023Z,993.01
2018-01-16T01:24:43.999Z,992.97
2018-01-16T01:25:43.979Z,992.90
2018-01-16T01:26:43.956Z,992.86
2018-01-16T01:27:43.935Z,992.85
2018-01-16T01:28:43.912Z,992.90
2018-01-16T01:29:43.891Z,992.95
2018-01-16T01:30:43.869Z,992.89
2018-01-16T01:31:43.847Z,992.89
2018-01-16T01:32:43.824Z,992.85
2018-01-16T01:33:43.802Z,992.94
2018-01-16T01:34:43.780Z,992.92
2018-01-16T01:35:43.758Z,992.91
2018-01-16T01:36:43.736Z,992.85
2018-01-16T01:37:43.716Z,992.92
2018-01-16T01:38:43.692Z,992.91
2018-01-16T01:39:43.670Z,992.92
2018-01-16T01:40:43.647Z,992.92
2018-01-16T01:41:43.625Z,992.89
2018-01-16T01:42:43.603Z,992.87
2018-01-16T01:43:43.581Z,992.82
2018-01-16T01:44:43.559Z,992.80
2018-01-16T01:45:43.537Z,992.76
2018-01-16T01:46:43.514Z,992.75
2018-01-16T01:47:43.492Z,992.76
2018-01-16T01:48:43.469Z,992.71
2018-01-16T01:49:43.446Z,992.73
2018-01-16T01:50:43.424Z,992.74
2018-01-16T01:51:43.402Z,992.68
2018-01-16T01:52:43.379Z,992.67
2018-01-16T01:53:43.356Z,992.66
2018-01-16T01:54:43.335Z,992.63
2018-01-16T01:55:43.312Z,992.55
2018-01-16T01:56:43.289Z,992.51
2018-01-16T01:57:43.268Z,992.48
2018-01-16T01:58:43.245Z,992.51
2018-01-16T01:59:43.223Z,992.45
2018-01-16T02:00:43.198Z,992.45
2018-01-16T02:01:43.177Z,992.42
2018-01-16T02:02:43.154Z,992.34
2018-01-16T02:03:43.132Z,992.36
2018-01-16T02:04:43.109Z,992.37
2018-01-16T02:05:43.090Z,992.40
2018-01-16T02:06:43.064Z,992.36
2018-01-16T02:07:43.042Z,992.37
2018-01-16T02:08:43.019Z,992.44
2018-01-16T02:09:42.996Z,992.37
2018-01-16T02:10:42.979Z,992.40
2018-01-16T02:11:42.952Z,992.33
2018-01-16T02:12:42.934Z,992.35
2018-01-16T02:13:42.906Z,992.32
2018-01-16T02:14:42.883Z,992.24
2018-01-16T02:15:42.862Z,992.30
2018-01-16T02:16:42.838Z,992.29
2018-01-16T02:17:42.814Z,992.24
2018-01-16T02:18:42.793Z,992.34
2018-01-16T02:19:42.770Z,992.28
2018-01-16T02:20:42.746Z,992.20
2018-01-16T02:21:42.725Z,992.28
2018-01-16T02:22:42.700Z,992.25
2018-01-16T02:23:42.679Z,992.28
2018-01-16T02:24:42.655Z,992.27
2018-01-16T02:25:42.633Z,992.29
2018-01-16T02:26:42.610Z,992.38
2018-01-16T02:27:42.589Z,992.32
2018-01-16T02:28:42.564Z,992.30
2018-01-16T02:29:42.542Z,992.33
2018-01-16T02:30:42.520Z,992.34
2018-01-16T02:31:42.497Z,992.31
2018-01-16T02:32:42.474Z,992.30
2018-01-16T02:33:42.452Z,992.30
2018-01-16T02:34:42.428Z,992.27
2018-01-16T02:35:42.406Z,992.24
2018-01-16T02:36:42.385Z,992.20
2018-01-16T02:37:42.362Z,992.14
2018-01-16T02:38:42.337Z,992.13
2018-01-16T02:39:42.315Z,992.13
2018-01-16T02:40:42.290Z,992.07
2018-01-16T02:41:42.269Z,992.10
2018-01-16T02:42:42.246Z,992.08
2018-01-16T02:43:42.224Z,992.05
2018-01-16T02:44:42.200Z,991.95
2018-01-16T02:45:42.178Z,991.96
2018-01-16T02:46:42.155Z,991.93
2018-01-16T02:47:42.133Z,991.92
2018-01-16T02:48:42.112Z,991.94
2018-01-16T02:49:42.088Z,992.00
2018-01-16T02:50:42.064Z,991.99
2018-01-16T02:51:42.041Z,991.97
2018-01-16T02:52:42.016Z,991.93
2018-01-16T02:53:41.995Z,991.87
2018-01-16T02:54:41.971Z,991.85
2018-01-16T02:55:41.949Z,991.80
2018-01-16T02:56:41.926Z,991.77
2018-01-16T02:57:41.906Z,991.82
2018-01-16T02:58:41.881Z,991.79
2018-01-16T02:59:41.858Z,991.73
2018-01-16T03:00:41.834Z,991.73
2018-01-16T03:01:41.812Z,991.74
2018-01-16T03:02:41.788Z,991.70
2018-01-16T03:03:41.769Z,991.67
2018-01-16T03:04:41.743Z,991.64
2018-01-16T03:05:41.720Z,991.66
2018-01-16T03:06:41.698Z,991.64
2018-01-16T03:07:41.674Z,991.66
2018-01-16T03:08:41.651Z,991.67
2018-01-16T03:09:41.628Z,991.70
2018-01-16T03:10:41.605Z,991.71
2018-01-16T03:11:41.583Z,991.69
2018-01-16T03:12:41.559Z,991.72
2018-01-16T03:13:41.537Z,991.74
2018-01-16T03:14:41.513Z,991.71
2018-01-16T03:15:41.491Z,991.72
2018-01-16T03:16:41.467Z,991.73
2018-01-16T03:17:41.445Z,991.65
2018-01-16T03:18:41.423Z,991.66
2018-01-16T03:19:41.400Z,991.69
2018-01-16T03:20:41.376Z,991.69
2018-01-16T03:21:41.353Z,991.72
2018-01-16T03:22:41.330Z,991.67
2018-01-16T03:23:41.307Z,991.66
2018-01-16T03:24:41.284Z,991.63
2018-01-16T03:25:41.261Z,991.66
2018-01-16T03:26:41.239Z,991.66
2018-01-16T03:27:41.217Z,991.63
2018-01-16T03:28:41.192Z,991.63
2018-01-16T03:29:41.169Z,991.51
2018-01-16T03:30:41.150Z,991.51
2018-01-16T03:31:41.124Z,991.45
2018-01-16T03:32:41.100Z,991.48
2018-01-16T03:33:41.076Z,991.43
2018-01-16T03:34:41.055Z,991.41
2018-01-16T03:35:41.033Z,991.38
2018-01-16T03:36:41.008Z,991.39
2018-01-16T03:37:40.984Z,991.38
2018-01-16T03:38:40.963Z,991.38
2018-01-16T03:39:40.939Z,991.40
2018-01-16T03:40:40.916Z,991.35
2018-01-16T03:41:40.892Z,991.32
2018-01-16T03:42:40.870Z,991.28
2018-01-16T03:43:40.847Z,991.28
2018-01-16T03:44:40.825Z,991.25
2018-01-16T03:45:40.802Z,991.25
2018-01-16T03:46:40.779Z,991.20
2018-01-16T03:47:40.757Z,991.17
2018-01-16T03:48:40.732Z,991.15
2018-01-16T03:49:40.710Z,991.10
2018-01-16T03:50:40.688Z,991.12
2018-01-16T03:51:40.666Z,991.16
2018-01-16T03:52:40.642Z,991.15
2018-01-16T03:53:40.619Z,991.16
2018-01-16T03:54:40.597Z,991.11
2018-01-16T03:55:40.575Z,991.11
2018-01-16T03:56:40.551Z,991.13
2018-01-16T03:57:40.529Z,991.08
2018-01-16T03:58:40.507Z,991.08
2018-01-16T03:59:40.485Z,991.07
2018-01-16T04:00:40.461Z,991.09
2018-01-16T04:01:40.439Z,991.13
2018-01-16T04:02:40.417Z,991.13
2018-01-16T04:03:40.395Z,991.12
2018-01-16T04:04:40.371Z,991.05
2018-01-16T04:05:40.349Z,991.05
2018-01-16T04:06:40.327Z,991.07
2018-01-16T04:07:40.305Z,991.06
2018-01-16T04:08:40.281Z,991.08
2018-01-16T04:09:40.258Z,991.06
2018-01-16T04:10:40.236Z,991.06
2018-01-16T04:11:40.216Z,991.00
2018-01-16T04:12:40.190Z,991.04
2018-01-16T04:13:40.169Z,991.05
2018-01-16T04:14:40.146Z,991.07
2018-01-16T04:15:40.124Z,991.09
2018-01-16T04:16:40.099Z,991.07
2018-01-16T04:17:40.078Z,991.05
2018-01-16T04:18:40.056Z,991.03
2018-01-16T04:19:40.034Z,990.99
2018-01-16T04:20:40.011Z,990.99
2018-01-16T04:21:39.988Z,990.99
2018-01-16T04:22:39.966Z,991.04
2018-01-16T04:23:39.944Z,991.07
2018-01-16T04:24:39.921Z,991.10
2018-01-16T04:25:39.898Z,991.09
2018-01-16T04:26:39.876Z,991.05
2018-01-16T04:27:39.853Z,991.07
2018-01-16T04:28:39.830Z,991.06
2018-01-16T04:29:39.807Z,991.03
2018-01-16T04:30:39.785Z,990.97
2018-01-16T04:31:39.764Z,990.92
2018-01-16T04:32:39.739Z,990.90
2018-01-16T04:33:39.719Z,990.86
2018-01-16T04:34:39.697Z,990.86
2018-01-16T04:35:39.673Z,990.87
2018-01-16T04:36:39.651Z,990.85
2018-01-16T04:37:39.638Z,990.76
2018-01-16T04:38:39.605Z,990.82
2018-01-16T04:39:39.584Z,990.78
2018-01-16T04:40:39.559Z,990.72
2018-01-16T04:41:39.538Z,990.73
2018-01-16T04:42:39.514Z,990.74
2018-01-16T04:43:39.494Z,990.73
2018-01-16T04:44:39.469Z,990.73
2018-01-16T04:45:39.447Z,990.72
2018-01-16T04:46:39.426Z,990.71
2018-01-16T04:47:39.404Z,990.70
2018-01-16T04:48:39.381Z,990.70
2018-01-16T04:49:39.358Z,990.72
2018-01-16T04:50:39.336Z,990.73
2018-01-16T04:51:39.314Z,990.71
2018-01-16T04:52:39.290Z,990.68
2018-01-16T04:53:39.269Z,990.67
2018-01-16T04:54:39.245Z,990.66
2018-01-16T04:55:39.225Z,990.71
2018-01-16T04:56:39.200Z,990.69
2018-01-16T04:57:39.178Z,990.70
2018-01-16T04:58:39.157Z,990.68
2018-01-16T04:59:39.135Z,990.69
2018-01-16T05:00:39.111Z,990.63
2018-01-16T05:01:39.090Z,990.65
2018-01-16T05:02:39.068Z,990.70
2018-01-16T05:03:39.046Z,990.68
2018-01-16T05:04:39.022Z,990.68
2018-01-16T05:05:39.001Z,990.66
2018-01-16T05:06:38.978Z,990.64
2018-01-16T05:07:38.956Z,990.63
2018-01-16T05:08:38.934Z,990.60
2018-01-16T05:09:38.910Z,990.62
2018-01-16T05:10:38.890Z,990.58
2018-01-16T05:11:38.867Z,990.62
2018-01-16T05:12:38.843Z,990.56
2018-01-16T05:13:38.822Z,990.53
2018-01-16T05:14:38.799Z,990.48
2018-01-16T05:15:38.777Z,990.50
2018-01-16T05:16:38.754Z,990.44
2018-01-16T05:17:38.732Z,990.50
2018-01-16T05:18:38.709Z,990.49
2018-01-16T05:19:38.687Z,990.50
2018-01-16T05:20:38.666Z,990.48
2018-01-16T05:21:38.641Z,990.49
2018-01-16T05:22:38.621Z,990.46
2018-01-16T05:23:38.600Z,990.51
2018-01-16T05:24:38.575Z,990.46
2018-01-16T05:25:38.554Z,990.45
2018-01-16T05:26:38.534Z,990.52
2018-01-16T05:27:38.528Z,990.49
2018-01-16T05:28:38.486Z,990.55
2018-01-16T05:29:38.463Z,990.55
2018-01-16T05:30:38.441Z,990.54
2018-01-16T05:31:38.420Z,990.58
2018-01-16T05:32:38.398Z,990.60
2018-01-16T05:33:38.374Z,990.59
2018-01-16T05:34:38.353Z,990.62
2018-01-16T05:35:38.331Z,990.58
2018-01-16T05:36:38.308Z,990.58
2018-01-16T05:37:38.286Z,990.63
2018-01-16T05:38:38.265Z,990.62
2018-01-16T05:39:38.242Z,990.61
2018-01-16T05:40:38.220Z,990.66
2018-01-16T05:41:38.198Z,990.65
2018-01-16T05:42:38.176Z,990.73
2018-01-16T05:43:38.153Z,990.68
2018-01-16T05:44:38.131Z,990.62
2018-01-16T05:45:38.109Z,990.65
2018-01-16T05:46:38.086Z,990.59
2018-01-16T05:47:38.065Z,990.63
2018-01-16T05:48:38.041Z,990.66
2018-01-16T05:49:38.021Z,990.69
2018-01-16T05:50:37.999Z,990.68
2018-01-16T05:51:37.976Z,990.63
2018-01-16T05:52:37.953Z,990.71
2018-01-16T05:53:37.931Z,990.68
2018-01-16T05:54:37.913Z,990.66
2018-01-16T05:55:37.890Z,990.62
2018-01-16T05:56:37.865Z,990.68
2018-01-16T05:57:37.843Z,990.66
2018-01-16T05:58:37.823Z,990.71
2018-01-16T05:59:37.799Z,990.68
2018-01-16T06:00:37.778Z,990.69
2018-01-16T06:01:37.755Z,990.69
2018-01-16T06:02:37.733Z,990.69
2018-01-16T06:03:37.712Z,990.66
2018-01-16T06:04:37.689Z,990.62
2018-01-16T06:05:37.669Z,990.62
2018-01-16T06:06:37.646Z,990.61
2018-01-16T06:07:37.625Z,990.64
2018-01-16T06:08:37.603Z,990.65
2018-01-16T06:09:37.581Z,990.70
2018-01-16T06:10:37.560Z,990.74
2018-01-16T06:11:37.536Z,990.69
2018-01-16T06:12:37.515Z,990.68
2018-01-16T06:13:37.494Z,990.76
2018-01-16T06:14:37.470Z,990.74
2018-01-16T06:15:37.450Z,990.72
2018-01-16T06:16:37.426Z,990.65
2018-01-16T06:17:37.413Z,990.61
2018-01-16T06:18:37.384Z,990.62
2018-01-16T06:19:37.362Z,990.61
2018-01-16T06:20:37.339Z,990.62
2018-01-16T06:21:37.320Z,990.53
2018-01-16T06:22:37.297Z,990.52
2018-01-16T06:23:37.276Z,990.58
2018-01-16T06:24:37.254Z,990.54
2018-01-16T06:25:37.232Z,990.54
2018-01-16T06:26:37.212Z,990.55
2018-01-16T06:27:37.190Z,990.54
2018-01-16T06:28:37.169Z,990.47
2018-01-16T06:29:37.148Z,990.55
2018-01-16T06:30:37.123Z,990.53
2018-01-16T06:31:37.103Z,990.50
2018-01-16T06:32:37.081Z,990.64
2018-01-16T06:33:37.059Z,990.50
2018-01-16T06:34:37.038Z,990.50
2018-01-16T06:35:37.016Z,990.54
2018-01-16T06:36:37.001Z,990.49
2018-01-16T06:37:36.976Z,990.54
2018-01-16T06:38:36.952Z,990.56
2018-01-16T06:39:36.930Z,990.59
2018-01-16T06:40:36.908Z,990.55
2018-01-16T06:41:36.887Z,990.54
2018-01-16T06:42:36.864Z,990.54
2018-01-16T06:43:36.845Z,990.51
2018-01-16T06:44:36.823Z,990.53
2018-01-16T06:45:36.801Z,990.56
2018-01-16T06:46:36.780Z,990.65
2018-01-16T06:47:36.760Z,990.65
2018-01-16T06:48:36.736Z,990.62
2018-01-16T06:49:36.716Z,990.66
2018-01-16T06:50:36.695Z,990.62
2018-01-16T06:51:36.674Z,990.63
2018-01-16T06:52:36.652Z,990.60
2018-01-16T06:53:36.635Z,990.59
2018-01-16T06:54:36.611Z,990.59
2018-01-16T06:55:36.590Z,990.61
2018-01-16T06:56:36.567Z,990.64
2018-01-16T06:57:36.548Z,990.61
2018-01-16T06:58:36.525Z,990.55
2018-01-16T06:59:36.506Z,990.54
2018-01-16T07:00:36.483Z,990.58
2018-01-16T07:01:36.462Z,990.50
2018-01-16T07:02:36.441Z,990.48
2018-01-16T07:03:36.426Z,990.45
2018-01-16T07:04:36.398Z,990.44
2018-01-16T07:05:36.377Z,990.45
2018-01-16T07:06:36.361Z,990.48
2018-01-16T07:07:36.335Z,990.48
2018-01-16T07:08:36.313Z,990.49
2018-01-16T07:09:36.291Z,990.46
2018-01-16T07:10:36.275Z,990.50
2018-01-16T07:11:36.256Z,990.43
2018-01-16T07:12:36.229Z,990.44
2018-01-16T07:13:36.208Z,990.50
2018-01-16T07:14:36.190Z,990.49
2018-01-16T07:15:36.166Z,990.46
2018-01-16T07:16:36.145Z,990.44
2018-01-16T07:17:36.124Z,990.49
2018-01-16T07:18:36.103Z,990.49
2018-01-16T07:19:36.081Z,990.45
2018-01-16T07:20:36.061Z,990.44
2018-01-16T07:21:36.040Z,990.44
2018-01-16T07:22:36.019Z,990.47
2018-01-16T07:23:35.998Z,990.44
2018-01-16T07:24:35.976Z,990.47
2018-01-16T07:25:35.956Z,990.44
2018-01-16T07:26:35.935Z,990.47
2018-01-16T07:27:35.914Z,990.50
2018-01-16T07:28:35.893Z,990.58
2018-01-16T07:29:35.872Z,990.54
2018-01-16T07:30:35.850Z,990.58
2018-01-16T07:31:35.830Z,990.57
2018-01-16T07:32:35.808Z,990.59
2018-01-16T07:33:35.787Z,990.62
2018-01-16T07:34:35.766Z,990.62
2018-01-16T07:35:35.746Z,990.63
2018-01-16T07:36:35.724Z,990.57
2018-01-16T07:37:35.703Z,990.58
2018-01-16T07:38:35.682Z,990.66
2018-01-16T07:39:35.660Z,990.62
2018-01-16T07:40:35.639Z,990.75
2018-01-16T07:41:35.619Z,990.73
2018-01-16T07:42:35.599Z,990.80
2018-01-16T07:43:35.577Z,990.83
2018-01-16T07:44:35.557Z,990.72
2018-01-16T07:45:35.535Z,990.57
2018-01-16T07:46:35.514Z,990.65
2018-01-16T07:47:35.493Z,990.73
2018-01-16T07:48:35.472Z,990.60
2018-01-16T07:49:35.455Z,990.66
2018-01-16T07:50:35.431Z,990.59
2018-01-16T07:51:35.409Z,990.53
2018-01-16T07:52:35.390Z,990.43
2018-01-16T07:53:35.367Z,990.51
2018-01-16T07:54:35.346Z,990.56
2018-01-16T07:55:35.327Z,990.42
2018-01-16T07:56:35.304Z,990.32
2018-01-16T07:57:35.283Z,990.41
2018-01-16T07:58:35.262Z,990.40
2018-01-16T07:59:35.241Z,990.44
2018-01-16T08:00:35.219Z,990.49
2018-01-16T08:01:35.200Z,990.57
2018-01-16T08:02:35.178Z,990.47
2018-01-16T08:03:35.158Z,990.70
2018-01-16T08:04:35.137Z,990.89
2018-01-16T08:05:35.115Z,990.76
2018-01-16T08:06:35.095Z,990.77
2018-01-16T08:07:35.074Z,990.83
2018-01-16T08:08:35.052Z,990.71
2018-01-16T08:09:35.031Z,990.80
2018-01-16T08:10:35.011Z,990.99
2018-01-16T08:11:34.989Z,991.18
2018-01-16T08:12:34.967Z,990.97
2018-01-16T08:13:34.947Z,991.14
2018-01-16T08:14:34.927Z,990.94
2018-01-16T08:15:34.907Z,990.97
2018-01-16T08:16:34.885Z,990.96
2018-01-16T08:17:34.864Z,990.97
2018-01-16T08:18:34.843Z,990.96
2018-01-16T08:19:34.822Z,990.90
2018-01-16T08:20:34.800Z,991.00
2018-01-16T08:21:34.779Z,991.05
2018-01-16T08:22:34.766Z,990.97
2018-01-16T08:23:34.737Z,991.07
2018-01-16T08:24:34.716Z,991.26
2018-01-16T08:25:34.695Z,991.12
2018-01-16T08:26:34.674Z,991.23
2018-01-16T08:27:34.654Z,991.29
2018-01-16T08:28:34.632Z,991.25
2018-01-16T08:29:34.610Z,991.20
2018-01-16T08:30:34.590Z,991.22
2018-01-16T08:31:34.570Z,991.20
2018-01-16T08:32:34.548Z,991.19
2018-01-16T08:33:34.526Z,991.25
2018-01-16T08:34:34.506Z,991.35
2018-01-16T08:35:34.484Z,991.34
2018-01-16T08:36:34.462Z,991.51
2018-01-16T08:37:34.442Z,991.53
2018-01-16T08:38:34.421Z,991.60
2018-01-16T08:39:34.400Z,991.59
2018-01-16T08:40:34.378Z,991.64
2018-01-16T08:41:34.356Z,991.72
2018-01-16T08:42:34.336Z,991.76
2018-01-16T08:43:34.316Z,991.73
2018-01-16T08:44:34.294Z,991.93
2018-01-16T08:45:34.273Z,991.90
2018-01-16T08:46:34.252Z,991.95
2018-01-16T08:47:34.232Z,992.26
2018-01-16T08:48:34.209Z,991.97
2018-01-16T08:49:34.188Z,991.94
2018-01-16T08:50:34.166Z,991.96
2018-01-16T08:51:34.146Z,992.02
2018-01-16T08:52:34.123Z,992.02
2018-01-16T08:53:34.102Z,992.07
2018-01-16T08:54:34.084Z,992.02
2018-01-16T08:55:34.060Z,992.02
2018-01-16T08:56:34.039Z,991.97
2018-01-16T08:57:34.016Z,991.94
2018-01-16T08:58:33.996Z,991.84
2018-01-16T08:59:33.974Z,991.70
2018-01-16T09:00:33.952Z,991.66
2018-01-16T09:01:33.931Z,991.75
2018-01-16T09:02:33.912Z,991.67
2018-01-16T09:03:33.890Z,991.74
2018-01-16T09:04:33.868Z,991.79
2018-01-16T09:05:33.847Z,991.77
2018-01-16T09:06:33.826Z,991.69
2018-01-16T09:07:33.804Z,991.62
2018-01-16T09:08:33.785Z,991.59
2018-01-16T09:09:33.762Z,991.64
2018-01-16T09:10:33.741Z,991.68
2018-01-16T09:11:33.719Z,991.66
2018-01-16T09:12:33.697Z,991.66
2018-01-16T09:13:33.677Z,991.64
2018-01-16T09:14:33.656Z,991.58
2018-01-16T09:15:33.636Z,991.58
2018-01-16T09:16:33.612Z,991.57
2018-01-16T09:17:33.592Z,991.54
2018-01-16T09:18:33.570Z,991.62
2018-01-16T09:19:33.550Z,991.63
2018-01-16T09:20:33.525Z,991.57
2018-01-16T09:21:33.512Z,991.63
2018-01-16T09:22:33.484Z,991.60
2018-01-16T09:23:33.462Z,991.61
2018-01-16T09:24:33.441Z,991.74
2018-01-16T09:25:33.419Z,991.82
2018-01-16T09:26:33.398Z,991.87
2018-01-16T09:27:33.377Z,991.93
2018-01-16T09:28:33.355Z,992.03
2018-01-16T09:29:33.334Z,992.02
2018-01-16T09:30:33.312Z,991.93
2018-01-16T09:31:33.292Z,991.91
2018-01-16T09:32:33.270Z,991.91
2018-01-16T09:33:33.247Z,991.87
2018-01-16T09:34:33.228Z,991.93
2018-01-16T09:35:33.206Z,991.90
2018-01-16T09:36:33.183Z,991.88
2018-01-16T09:37:33.163Z,991.89
2018-01-16T09:38:33.141Z,991.98
2018-01-16T09:39:33.121Z,991.95
2018-01-16T09:40:33.099Z,992.10
2018-01-16T09:41:33.080Z,992.05
2018-01-16T09:42:33.056Z,992.07
2018-01-16T09:43:33.036Z,992.08
2018-01-16T09:44:33.013Z,992.12
2018-01-16T09:45:32.994Z,992.16
2018-01-16T09:46:32.972Z,992.15
2018-01-16T09:47:32.951Z,992.22
2018-01-16T09:48:32.927Z,992.21
2018-01-16T09:49:32.908Z,992.22
2018-01-16T09:50:32.888Z,992.20
2018-01-16T09:51:32.866Z,992.33
2018-01-16T09:52:32.844Z,992.21
2018-01-16T09:53:32.823Z,992.27
2018-01-16T09:54:32.836Z,992.28
2018-01-16T09:55:32.781Z,992.24
2018-01-16T09:56:32.762Z,992.29
2018-01-16T09:57:32.737Z,992.19
2018-01-16T09:58:32.718Z,992.26
2018-01-16T09:59:32.696Z,992.31
2018-01-16T10:00:32.676Z,992.24
2018-01-16T10:01:32.657Z,992.27
2018-01-16T10:02:32.634Z,992.25
2018-01-16T10:03:32.612Z,992.38
2018-01-16T10:04:32.591Z,992.35
2018-01-16T10:05:32.570Z,992.34
2018-01-16T10:06:32.550Z,992.45
2018-01-16T10:07:32.528Z,992.35
2018-01-16T10:08:32.506Z,992.32
2018-01-16T10:09:32.486Z,992.32
2018-01-16T10:10:32.464Z,992.37
2018-01-16T10:11:32.444Z,992.31
2018-01-16T10:12:32.423Z,992.29
2018-01-16T10:13:32.400Z,992.39
2018-01-16T10:14:32.381Z,992.38
2018-01-16T10:15:32.359Z,992.40
2018-01-16T10:16:32.337Z,992.38
2018-01-16T10:17:32.316Z,992.41
2018-01-16T10:18:32.294Z,992.42
2018-01-16T10:19:32.274Z,992.38
2018-01-16T10:20:32.253Z,992.40
2018-01-16T10:21:32.232Z,992.43
2018-01-16T10:22:32.212Z,992.48
2018-01-16T10:23:32.189Z,992.51
2018-01-16T10:24:32.167Z,992.62
2018-01-16T10:25:32.147Z,992.58
2018-01-16T10:26:32.127Z,992.63
2018-01-16T10:27:32.107Z,992.64
2018-01-16T10:28:32.085Z,992.56
2018-01-16T10:29:32.065Z,992.46
2018-01-16T10:30:32.044Z,992.50
2018-01-16T10:31:32.024Z,992.62
2018-01-16T10:32:32.002Z,992.46
2018-01-16T10:33:31.982Z,992.62
2018-01-16T10:34:31.962Z,992.55
2018-01-16T10:35:31.940Z,992.56
2018-01-16T10:36:31.923Z,992.52
2018-01-16T10:37:31.898Z,992.54
2018-01-16T10:38:31.879Z,992.52
2018-01-16T10:39:31.857Z,992.50
2018-01-16T10:40:31.837Z,992.53
2018-01-16T10:41:31.816Z,992.62
2018-01-16T10:42:31.794Z,992.62
2018-01-16T10:43:31.775Z,992.63
2018-01-16T10:44:31.753Z,992.80
2018-01-16T10:45:31.734Z,992.68
2018-01-16T10:46:31.713Z,992.71
2018-01-16T10:47:31.692Z,992.66
2018-01-16T10:48:31.670Z,992.66
2018-01-16T10:49:31.650Z,992.64
2018-01-16T10:50:31.630Z,992.77
2018-01-16T10:51:31.617Z,992.78
2018-01-16T10:52:31.588Z,992.67
2018-01-16T10:53:31.569Z,993.00
2018-01-16T10:54:31.547Z,992.76
2018-01-16T10:55:31.526Z,992.82
2018-01-16T10:56:31.505Z,992.91
2018-01-16T10:57:31.486Z,992.80
2018-01-16T10:58:31.465Z,992.75
2018-01-16T10:59:31.444Z,992.80
2018-01-16T11:00:31.424Z,992.83
2018-01-16T11:01:31.409Z,992.85
2018-01-16T11:02:31.383Z,992.85
2018-01-16T11:03:31.363Z,992.89
2018-01-16T11:04:31.341Z,992.88
2018-01-16T11:05:31.321Z,992.96
2018-01-16T11:06:31.303Z,992.89
2018-01-16T11:07:31.281Z,992.91
2018-01-16T11:08:31.260Z,992.99
2018-01-16T11:09:31.240Z,992.93
2018-01-16T11:10:31.219Z,993.04
2018-01-16T11:11:31.199Z,992.93
2018-01-16T11:12:31.178Z,992.94
2018-01-16T11:13:31.158Z,992.98
2018-01-16T11:14:31.137Z,992.99
2018-01-16T11:15:31.117Z,993.00
2018-01-16T11:16:31.095Z,992.96
2018-01-16T11:17:31.080Z,993.07
2018-01-16T11:18:31.056Z,993.03
2018-01-16T11:19:31.036Z,993.11
2018-01-16T11:20:31.015Z,993.09
2018-01-16T11:21:30.994Z,993.07
2018-01-16T11:22:30.974Z,993.10
2018-01-16T11:23:30.957Z,993.16
2018-01-16T11:24:30.933Z,993.08
2018-01-16T11:25:30.913Z,993.15
2018-01-16T11:26:30.899Z,993.17
2018-01-16T11:27:30.874Z,993.19
2018-01-16T11:28:30.851Z,993.19
2018-01-16T11:29:30.831Z,993.15
2018-01-16T11:30:30.811Z,993.12
2018-01-16T11:31:30.791Z,993.17
2018-01-16T11:32:30.770Z,993.16
2018-01-16T11:33:30.750Z,993.18
2018-01-16T11:34:30.730Z,993.26
2018-01-16T11:35:30.710Z,993.39
2018-01-16T11:36:30.689Z,993.27
2018-01-16T11:37:30.668Z,993.22
2018-01-16T11:38:30.650Z,993.17
2018-01-16T11:39:30.632Z,993.18
2018-01-16T11:40:30.609Z,993.24
2018-01-16T11:41:30.588Z,993.26
2018-01-16T11:42:30.569Z,993.19
2018-01-16T11:43:30.550Z,993.22
2018-01-16T11:44:30.527Z,993.18
2018-01-16T11:45:30.509Z,993.24
2018-01-16T11:46:30.489Z,993.18
2018-01-16T11:47:30.469Z,993.31
2018-01-16T11:48:30.448Z,993.18
2018-01-16T11:49:30.428Z,993.24
2018-01-16T11:50:30.659Z,993.24
2018-01-16T11:51:30.390Z,993.24
2018-01-16T11:52:30.368Z,993.24
2018-01-16T11:53:30.349Z,993.27
2018-01-16T11:54:30.329Z,993.23
2018-01-16T11:55:30.310Z,993.29
2018-01-16T11:56:30.289Z,993.35
2018-01-16T11:57:30.270Z,993.28
2018-01-16T11:58:30.250Z,993.31
2018-01-16T11:59:30.230Z,993.25
2018-01-16T12:00:30.210Z,993.19
2018-01-16T12:01:30.192Z,993.22
2018-01-16T12:02:30.170Z,993.14
2018-01-16T12:03:30.151Z,993.14
2018-01-16T12:04:30.130Z,993.20
2018-01-16T12:05:30.110Z,993.31
2018-01-16T12:06:30.092Z,993.17
2018-01-16T12:07:30.070Z,993.12
2018-01-16T12:08:30.050Z,993.13
2018-01-16T12:09:30.031Z,993.16
2018-01-16T12:10:30.012Z,993.16
2018-01-16T12:11:29.992Z,993.08
2018-01-16T12:12:29.970Z,993.18
2018-01-16T12:13:29.952Z,993.14
2018-01-16T12:14:29.933Z,993.12
2018-01-16T12:15:29.912Z,993.16
2018-01-16T12:16:29.891Z,993.23
2018-01-16T12:17:29.872Z,993.38
2018-01-16T12:18:29.852Z,993.27
2018-01-16T12:19:29.832Z,993.36
2018-01-16T12:20:29.810Z,993.46
2018-01-16T12:21:29.845Z,993.29
2018-01-16T12:22:29.772Z,993.22
2018-01-16T12:23:29.752Z,993.19
2018-01-16T12:24:29.731Z,993.25
2018-01-16T12:25:29.711Z,993.14
2018-01-16T12:26:29.693Z,993.29
2018-01-16T12:27:29.672Z,993.25
2018-01-16T12:28:29.651Z,993.28